This is the latest recevied weather packets stored in our database for station/object OK2ILA-1. If no packets are shown the sender has not sent any weather packets the latest 10 day(s).
| Time | Temp. | Humidity | Pressure | Rain* | Wind** | Luminosity | Snow |
|---|---|---|---|---|---|---|---|
| 1777348782 | 2.22° C | 100% | 1022.8 hPa | 0 mm | - | - | - |
| 1777348061 | 1.67° C | 100% | 1022.7 hPa | 0 mm | - | - | - |
| 1777347341 | 2.22° C | 100% | 1022.3 hPa | 0 mm | - | - | - |
| 1777346620 | 2.22° C | 100% | 1022.2 hPa | 0 mm | - | - | - |
| 1777345899 | 2.22° C | 100% | 1022.1 hPa | 0 mm | - | - | - |
| 1777345179 | 2.22° C | 100% | 1022.1 hPa | 0 mm | - | - | - |
| 1777344458 | 2.78° C | 100% | 1022.2 hPa | 0 mm | - | - | - |
| 1777343737 | 2.78° C | 100% | 1022.1 hPa | 0 mm | - | - | - |
| 1777342296 | 2.78° C | 100% | 1022.2 hPa | 0 mm | - | - | - |
| 1777340855 | 2.78° C | 100% | 1022.2 hPa | 0 mm | - | - | - |
| 1777340134 | 2.78° C | 100% | 1022.2 hPa | 0 mm | - | - | - |
| 1777339413 | 2.78° C | 100% | 1022.2 hPa | 0 mm | - | - | - |
| 1777338693 | 2.78° C | 100% | 1022.1 hPa | 0 mm | - | - | - |
| 1777335089 | 3.89° C | 100% | 1022.2 hPa | 0 mm | - | - | - |
| 1777334369 | 3.89° C | 100% | 1022.3 hPa | 0 mm | - | - | - |
| 1777313145 | 12.22° C | 100% | 1021.7 hPa | 0 mm | - | - | - |
| 1777312425 | 12.78° C | 100% | 1021.7 hPa | 0 mm | - | - | - |
| 1777311704 | 12.78° C | 100% | 1021.7 hPa | 0 mm | - | - | - |
| 1777310983 | 13.33° C | 100% | 1021.7 hPa | 0 mm | - | - | - |
| 1777309542 | 13.89° C | 100% | 1021.7 hPa | 0 mm | - | - | - |
| 1777307380 | 14.44° C | 100% | 1021.6 hPa | 0 mm | - | - | - |
| 1777306659 | 14.44° C | 100% | 1021.6 hPa | 0 mm | - | - | - |
| 1777305938 | 14.44° C | 100% | 1021.6 hPa | 0 mm | - | - | - |
| 1777304155 | 15° C | 100% | 1021.8 hPa | 0 mm | - | - | - |
| 1777301557 | 15.56° C | 100% | 1022 hPa | 0 mm | - | - | - |
* Rain latest hour (hover to see other rain measurements)
** Current wind speed in m/s (hover to see current wind gust speed)